Live Audio



buiten  Outside


The Shack  The Shack


Woonkamer  Woonkamer


The Shack 2  The Shack 2


Onweer radar Meer informatie blitzortung!


Regen radar Meer informatie rain snow radar


Bezoek onze andere website:

Template - Daily NOAA Satelite Images



Het weer levert geen direct gevaar op.    Er zijn geen waarschuwingen afgegeven.

METAR rapporten vliegvelden

   
EHAM - Amsterdam/Schiph, Netherlands
Afstand tot: OZO 26 km
Gewijzigd: 10-12-2018 11:55
Gedeeltelijk bewolkt  
Gedeeltelijk bewolkt  
   Wind: NW 24.1 km/h
Wind: NW 24.1 km/h
Temperatuur: 7°C
Voelt als: 3°C
Dauwpunt: 3°C
Vochtigheid: 76%
Barometer: 1021 hPa
Bewolking: Partly Cloudy
Zicht: More then 10 km
Bewolking: Licht bewolkt 609.6 m,
Gedeeltelijk bewolkt 1066.8 m
EHAM 101055Z 32013KT 290V350 9999 FEW020CB SCT035 07/03 Q1021 NOSIG
EHRD - Rotterdam Airpor, Netherlands
Afstand tot: Z 50 km
Gewijzigd: 10-12-2018 11:55
Lichte (mot)regen, Grotendeels bewolkt  
Lichte (mot)regen, Grotendeels bewolkt  
   Wind: WNW 27.8 km/h
Wind: WNW 27.8 km/h
Temperatuur: 7°C
Voelt als: 3°C
Dauwpunt: 4°C
Vochtigheid: 81%
Barometer: 1022 hPa
Bewolking: Mostly Cloudy
Zicht: More then 10 km
Bewolking: Licht bewolkt 457.2 m,
Gedeeltelijk bewolkt 1066.8 m,
Grotendeels bewolkt 1188.7 m
EHRD 101055Z AUTO 30015KT 260V340 9999 -DZ FEW015CB SCT035 BKN039 07/04 Q1022 TEMPO 7000 -SHRA FEW020CB
EHQE - Hoorn-A Sea, Netherlands
Afstand tot: NNW 60 km
Gewijzigd: 10-12-2018 11:55
Licht bewolkt  
Licht bewolkt  
   Wind: NW 59.3 km/h
Wind: NW 59.3 km/h
Temperatuur: 8°C
Voelt als: 2°C
Dauwpunt: 2°C
Vochtigheid: 66%
Barometer: 1021 hPa
Bewolking: Few Clouds
Zicht: More then 10 km
Bewolking: Licht bewolkt 792.5 m
EHQE 101055Z AUTO 32032KT 9999 FEW026 08/02 Q1021 W///H///
EHKD - De Kooy (navy), Netherlands
Afstand tot: NNO 61 km
Gewijzigd: 10-12-2018 11:55
Grotendeels bewolkt  
Grotendeels bewolkt  
   Wind: WNW 31.5 km/h<br />Gust to 31.5 km/h
Wind: WNW 31.5 km/h
Gust to 31.5 km/h
Temperatuur: 7°C
Voelt als: 3°C
Dauwpunt: 3°C
Vochtigheid: 76%
Barometer: 1020 hPa
Bewolking: Mostly Cloudy
Zicht: More then 10 km
Bewolking: Licht bewolkt 579.1 m,
Gedeeltelijk bewolkt 883.9 m,
Grotendeels bewolkt 1005.8 m
EHKD 101055Z AUTO 30017G27KT 260V350 9999 FEW019 SCT029 BKN033 07/03 Q1020 BLU 31015G25KT 9999 SCT025 SCT040 TEMPO SCT018CB BKN025
EHPG - P11-B Sea, Netherlands
Afstand tot: W 73 km
Gewijzigd: 10-12-2018 11:55
Grotendeels bewolkt  
Grotendeels bewolkt  
   Wind: NW 46.3 km/h
Wind: NW 46.3 km/h
Temperatuur: 8°C
Voelt als: 3°C
Dauwpunt: 1°C
Vochtigheid: 62%
Barometer: 1022 hPa
Bewolking: Mostly Cloudy
Zicht: More then 10 km
Bewolking: Licht bewolkt 518.2 m,
Gedeeltelijk bewolkt 701 m,
Grotendeels bewolkt 1036.3 m
EHPG 101055Z AUTO 32025KT 270V350 9999 FEW017 SCT023 BKN034 08/01 Q1022 W///H///
EHSC - Goeree Le Sea, Netherlands
Afstand tot: ZW 74 km
Gewijzigd: 10-12-2018 11:55
  
  
   Wind: NW 44.4 km/h
Wind: NW 44.4 km/h
Temperatuur: 9°C
Voelt als: 4°C
Dauwpunt: 2°C
Vochtigheid: 62%
Barometer: 1023 hPa
Zicht: More then 10 km
EHSC 101055Z AUTO 32024KT 9999 ///////// 09/02 Q1023 W09/H24

Script ontwikkeld door  Saratoga-weather.org Aangepast voor de template door  Weerstation Leuven

U vindt ons ook hier:

Het Weer Aktueel

UK Metoffice

Weather Underground

AWEKAS

HAMweather, WeatherForYou, PWS Weather

Apparatuur in gebruik:

Weerstation
Davis VP2

Weerprogramma
Weather Display

Weercomputer
Paradigit

Webleverancier
Mijn provider

Davis VP2

Weather Display

Paradigit

Mijn provider